createdAt,value
2022-10-05T00:00:00.429Z,2.20
2022-10-05T00:01:00.982Z,2.20
2022-10-05T00:02:00.471Z,2.20
2022-10-05T00:03:08.633Z,2.20
2022-10-05T00:04:09.342Z,2.20
2022-10-05T00:05:00.437Z,2.20
2022-10-05T00:06:00.400Z,2.20
2022-10-05T00:07:05.796Z,2.20
2022-10-05T00:08:06.987Z,2.20
2022-10-05T00:09:00.392Z,2.20
2022-10-05T00:10:00.327Z,2.20
2022-10-05T00:11:00.438Z,2.20
2022-10-05T00:12:10.199Z,2.20
2022-10-05T00:13:00.359Z,2.20
2022-10-05T00:14:00.457Z,2.20
2022-10-05T00:15:00.365Z,2.20
2022-10-05T00:16:07.636Z,2.20
2022-10-05T00:17:02.878Z,2.20
2022-10-05T00:18:01.723Z,2.20
2022-10-05T00:19:00.346Z,2.20
2022-10-05T00:20:00.357Z,2.20
2022-10-05T00:21:00.643Z,2.20
2022-10-05T00:22:09.566Z,2.00
2022-10-05T00:23:03.751Z,2.00
2022-10-05T00:24:00.358Z,2.00
2022-10-05T00:25:02.216Z,2.00
2022-10-05T00:26:08.012Z,2.00
2022-10-05T00:27:00.870Z,2.00
2022-10-05T00:28:00.405Z,2.00
2022-10-05T00:29:01.425Z,2.00
2022-10-05T00:30:06.686Z,2.00
2022-10-05T00:31:00.508Z,2.00
2022-10-05T00:32:00.364Z,2.00
2022-10-05T00:33:00.322Z,2.00
2022-10-05T00:34:00.643Z,2.00
2022-10-05T00:35:00.327Z,2.00
2022-10-05T00:36:00.566Z,2.00
2022-10-05T00:37:00.297Z,2.00
2022-10-05T00:38:00.427Z,2.00
2022-10-05T00:39:00.897Z,2.00
2022-10-05T00:40:00.777Z,2.00
2022-10-05T00:41:06.348Z,2.00
2022-10-05T00:42:10.219Z,2.00
2022-10-05T00:43:03.594Z,2.00
2022-10-05T00:44:07.704Z,2.00
2022-10-05T00:45:03.836Z,2.00
2022-10-05T00:46:05.382Z,2.00
2022-10-05T00:47:10.212Z,2.00
2022-10-05T00:48:03.626Z,2.00
2022-10-05T00:49:01.352Z,2.00
2022-10-05T00:50:10.248Z,2.00
2022-10-05T00:51:10.264Z,2.00
2022-10-05T00:52:10.262Z,2.70
2022-10-05T00:53:10.201Z,2.70
2022-10-05T00:54:01.347Z,2.70
2022-10-05T00:55:03.723Z,2.70
2022-10-05T00:56:04.787Z,2.70
2022-10-05T00:57:10.278Z,2.70
2022-10-05T00:58:00.400Z,2.70
2022-10-05T00:59:10.255Z,2.70
2022-10-05T01:00:09.016Z,2.70
2022-10-05T01:01:10.419Z,2.70
2022-10-05T01:02:10.325Z,2.70
2022-10-05T01:03:03.645Z,2.70
2022-10-05T01:04:10.308Z,2.70
2022-10-05T01:05:04.766Z,2.70
2022-10-05T01:06:10.390Z,2.70
2022-10-05T01:07:03.670Z,2.70
2022-10-05T01:08:10.319Z,2.70
2022-10-05T01:09:07.934Z,2.70
2022-10-05T01:10:07.738Z,2.70
2022-10-05T01:11:00.429Z,2.70
2022-10-05T01:12:08.301Z,2.70
2022-10-05T01:13:03.590Z,2.70
2022-10-05T01:14:10.245Z,2.70
2022-10-05T01:15:06.796Z,2.70
2022-10-05T01:16:00.392Z,2.70
2022-10-05T01:17:00.400Z,2.70
2022-10-05T01:18:10.198Z,2.70
2022-10-05T01:19:06.058Z,2.70
2022-10-05T01:20:00.392Z,2.70
2022-10-05T01:21:01.297Z,2.70
2022-10-05T01:22:10.195Z,2.10
2022-10-05T01:23:10.178Z,2.10
2022-10-05T01:24:10.249Z,2.10
2022-10-05T01:25:10.218Z,2.10
2022-10-05T01:26:10.183Z,2.10
2022-10-05T01:27:10.176Z,2.10
2022-10-05T01:28:02.880Z,2.10
2022-10-05T01:29:00.344Z,2.10
2022-10-05T01:30:05.433Z,2.10
2022-10-05T01:31:10.285Z,2.10
2022-10-05T01:32:10.231Z,2.10
2022-10-05T01:33:10.194Z,2.10
2022-10-05T01:34:11.215Z,2.10
2022-10-05T01:35:10.259Z,2.10
2022-10-05T01:36:10.217Z,2.10
2022-10-05T01:37:09.657Z,2.10
2022-10-05T01:38:10.222Z,2.10
2022-10-05T01:39:06.050Z,2.10
2022-10-05T01:40:03.690Z,2.10
2022-10-05T01:41:10.234Z,2.10
2022-10-05T01:42:03.628Z,2.10
2022-10-05T01:43:01.357Z,2.10
2022-10-05T01:44:04.776Z,2.10
2022-10-05T01:45:00.396Z,2.10
2022-10-05T01:46:03.715Z,2.10
2022-10-05T01:47:07.361Z,2.10
2022-10-05T01:48:06.959Z,2.10
2022-10-05T01:49:01.373Z,2.10
2022-10-05T01:50:03.075Z,2.10
2022-10-05T01:51:05.098Z,2.10
2022-10-05T01:52:10.228Z,2.20
2022-10-05T01:53:10.285Z,2.20
2022-10-05T01:54:07.766Z,2.20
2022-10-05T01:55:10.189Z,2.20
2022-10-05T01:56:04.998Z,2.20
2022-10-05T01:57:03.543Z,2.20
2022-10-05T01:58:10.189Z,2.20
2022-10-05T01:59:10.221Z,2.20
2022-10-05T02:00:02.179Z,2.20
2022-10-05T02:01:01.391Z,2.20
2022-10-05T02:02:02.829Z,2.20
2022-10-05T02:03:05.109Z,2.20
2022-10-05T02:04:01.362Z,2.20
2022-10-05T02:05:10.201Z,2.20
2022-10-05T02:06:07.501Z,2.20
2022-10-05T02:07:02.880Z,2.20
2022-10-05T02:08:05.082Z,2.20
2022-10-05T02:09:04.602Z,2.20
2022-10-05T02:10:06.822Z,2.20
2022-10-05T02:11:03.213Z,2.20
2022-10-05T02:12:03.698Z,2.20
2022-10-05T02:13:04.779Z,2.20
2022-10-05T02:14:10.189Z,2.20
2022-10-05T02:15:07.096Z,2.20
2022-10-05T02:16:02.354Z,2.20
2022-10-05T02:17:03.531Z,2.20
2022-10-05T02:18:03.380Z,2.20
2022-10-05T02:19:05.198Z,2.20
2022-10-05T02:20:04.657Z,2.20
2022-10-05T02:21:01.264Z,2.20
2022-10-05T02:22:02.509Z,2.40
2022-10-05T02:23:06.842Z,2.40
2022-10-05T02:24:02.865Z,2.40
2022-10-05T02:25:02.715Z,2.40
2022-10-05T02:26:01.021Z,2.40
2022-10-05T02:27:02.778Z,2.40
2022-10-05T02:28:03.906Z,2.40
2022-10-05T02:29:03.108Z,2.40
2022-10-05T02:30:04.307Z,2.40
2022-10-05T02:31:07.609Z,2.40
2022-10-05T02:32:06.325Z,2.40
2022-10-05T02:33:03.354Z,2.40
2022-10-05T02:34:10.175Z,2.40
2022-10-05T02:35:03.033Z,2.40
2022-10-05T02:36:04.334Z,2.40
2022-10-05T02:37:09.508Z,2.40
2022-10-05T02:38:07.464Z,2.40
2022-10-05T02:39:08.969Z,2.40
2022-10-05T02:40:10.211Z,2.40
2022-10-05T02:41:00.291Z,2.40
2022-10-05T02:42:10.177Z,2.40
2022-10-05T02:43:00.260Z,2.40
2022-10-05T02:44:10.166Z,2.40
2022-10-05T02:45:10.182Z,2.40
2022-10-05T02:46:10.235Z,2.40
2022-10-05T02:47:10.168Z,2.40
2022-10-05T02:48:01.288Z,2.40
2022-10-05T02:49:10.173Z,2.40
2022-10-05T02:50:10.201Z,2.40
2022-10-05T02:51:01.292Z,2.40
2022-10-05T02:52:10.172Z,2.30
2022-10-05T02:53:03.544Z,2.30
2022-10-05T02:54:03.731Z,2.30
2022-10-05T02:55:07.873Z,2.30
2022-10-05T02:56:10.181Z,2.30
2022-10-05T02:57:00.306Z,2.30
2022-10-05T02:58:01.261Z,2.30
2022-10-05T02:59:05.989Z,2.30
2022-10-05T03:00:05.032Z,2.30
2022-10-05T03:01:00.421Z,2.30
2022-10-05T03:02:10.237Z,2.30
2022-10-05T03:03:03.501Z,2.30
2022-10-05T03:04:03.581Z,2.30
2022-10-05T03:05:10.206Z,2.30
2022-10-05T03:06:02.495Z,2.30
2022-10-05T03:07:07.800Z,2.30
2022-10-05T03:08:03.533Z,2.30
2022-10-05T03:09:05.027Z,2.30
2022-10-05T03:10:10.173Z,2.30
2022-10-05T03:11:03.812Z,2.30
2022-10-05T03:12:09.025Z,2.30
2022-10-05T03:13:07.766Z,2.30
2022-10-05T03:14:01.268Z,2.30
2022-10-05T03:15:06.852Z,2.30
2022-10-05T03:16:09.107Z,2.30
2022-10-05T03:17:08.016Z,2.30
2022-10-05T03:18:07.763Z,2.30
2022-10-05T03:19:10.176Z,2.30
2022-10-05T03:20:10.207Z,2.30
2022-10-05T03:21:10.288Z,2.30
2022-10-05T03:22:10.175Z,2.00
2022-10-05T03:23:01.692Z,2.00
2022-10-05T03:24:10.130Z,2.00
2022-10-05T03:25:00.247Z,2.00
2022-10-05T03:26:10.174Z,2.00
2022-10-05T03:27:01.284Z,2.00
2022-10-05T03:28:00.302Z,2.00
2022-10-05T03:29:10.196Z,2.00
2022-10-05T03:30:03.800Z,2.00
2022-10-05T03:31:05.217Z,2.00
2022-10-05T03:32:00.317Z,2.00
2022-10-05T03:33:10.187Z,2.00
2022-10-05T03:34:07.982Z,2.00
2022-10-05T03:35:10.170Z,2.00
2022-10-05T03:36:00.271Z,2.00
2022-10-05T03:37:04.036Z,2.00
2022-10-05T03:38:00.272Z,2.00
2022-10-05T03:39:01.294Z,2.00
2022-10-05T03:40:06.265Z,2.00
2022-10-05T03:41:10.258Z,2.00
2022-10-05T03:42:03.522Z,2.00
2022-10-05T03:43:10.171Z,2.00
2022-10-05T03:44:08.935Z,2.00
2022-10-05T03:45:10.187Z,2.00
2022-10-05T03:46:03.640Z,2.00
2022-10-05T03:47:01.291Z,2.00
2022-10-05T03:48:07.671Z,2.00
2022-10-05T03:49:06.732Z,2.00
2022-10-05T03:50:08.984Z,2.00
2022-10-05T03:51:05.926Z,2.00
2022-10-05T03:52:04.732Z,2.10
2022-10-05T03:53:01.288Z,2.10
2022-10-05T03:54:07.570Z,2.10
2022-10-05T03:55:02.975Z,2.10
2022-10-05T03:56:10.222Z,2.10
2022-10-05T03:57:06.677Z,2.10
2022-10-05T03:58:04.198Z,2.10
2022-10-05T03:59:08.038Z,2.10
2022-10-05T04:00:03.832Z,2.10
2022-10-05T04:01:02.695Z,2.10
2022-10-05T04:02:01.619Z,2.10
2022-10-05T04:03:10.207Z,2.10
2022-10-05T04:04:02.469Z,2.10
2022-10-05T04:05:04.679Z,2.10
2022-10-05T04:06:05.936Z,2.10
2022-10-05T04:07:00.886Z,2.10
2022-10-05T04:08:00.264Z,2.10
2022-10-05T04:09:03.672Z,2.10
2022-10-05T04:10:02.459Z,2.10
2022-10-05T04:11:04.561Z,2.10
2022-10-05T04:12:01.265Z,2.10
2022-10-05T04:13:10.179Z,2.10
2022-10-05T04:14:04.684Z,2.10
2022-10-05T04:15:05.939Z,2.10
2022-10-05T04:16:01.395Z,2.10
2022-10-05T04:17:10.173Z,2.10
2022-10-05T04:18:04.567Z,2.10
2022-10-05T04:19:02.706Z,2.10
2022-10-05T04:20:03.138Z,2.10
2022-10-05T04:21:04.385Z,2.10
2022-10-05T04:22:00.276Z,2.20
2022-10-05T04:23:00.257Z,2.20
2022-10-05T04:24:05.459Z,2.20
2022-10-05T04:25:10.197Z,2.20
2022-10-05T04:26:03.781Z,2.20
2022-10-05T04:27:10.170Z,2.20
2022-10-05T04:28:05.167Z,2.20
2022-10-05T04:29:06.409Z,2.20
2022-10-05T04:30:04.939Z,2.20
2022-10-05T04:31:03.467Z,2.20
2022-10-05T04:32:07.778Z,2.20
2022-10-05T04:33:00.653Z,2.20
2022-10-05T04:34:09.283Z,2.20
2022-10-05T04:35:10.191Z,2.20
2022-10-05T04:36:00.255Z,2.20
2022-10-05T04:37:05.383Z,2.20
2022-10-05T04:38:10.193Z,2.20
2022-10-05T04:39:10.173Z,2.20
2022-10-05T04:40:03.543Z,2.20
2022-10-05T04:41:10.193Z,2.20
2022-10-05T04:42:05.217Z,2.20
2022-10-05T04:43:06.560Z,2.20
2022-10-05T04:44:01.408Z,2.20
2022-10-05T04:45:07.157Z,2.20
2022-10-05T04:46:00.255Z,2.20
2022-10-05T04:47:03.604Z,2.20
2022-10-05T04:48:10.165Z,2.20
2022-10-05T04:49:10.178Z,2.20
2022-10-05T04:50:09.558Z,2.20
2022-10-05T04:51:10.182Z,2.20
2022-10-05T04:52:10.178Z,2.60
2022-10-05T04:53:09.767Z,2.60
2022-10-05T04:54:10.211Z,2.60
2022-10-05T04:55:07.671Z,2.60
2022-10-05T04:56:05.248Z,2.60
2022-10-05T04:57:04.496Z,2.60
2022-10-05T04:58:10.172Z,2.60
2022-10-05T04:59:10.171Z,2.60
2022-10-05T05:00:03.764Z,2.60
2022-10-05T05:01:10.242Z,2.60
2022-10-05T05:02:10.190Z,2.60
2022-10-05T05:03:10.172Z,2.60
2022-10-05T05:04:00.336Z,2.60
2022-10-05T05:05:00.297Z,2.60
2022-10-05T05:06:17.357Z,2.60
2022-10-05T05:07:03.558Z,2.60
2022-10-05T05:08:00.399Z,2.60
2022-10-05T05:09:00.298Z,2.60
2022-10-05T05:10:10.201Z,2.60
2022-10-05T05:11:05.701Z,2.60
2022-10-05T05:12:10.200Z,2.60
2022-10-05T05:13:10.205Z,2.60
2022-10-05T05:14:01.347Z,2.60
2022-10-05T05:15:10.191Z,2.60
2022-10-05T05:16:06.476Z,2.60
2022-10-05T05:17:10.848Z,2.60
2022-10-05T05:18:05.768Z,2.60
2022-10-05T05:19:10.204Z,2.60
2022-10-05T05:20:07.774Z,2.60
2022-10-05T05:21:08.329Z,2.60
2022-10-05T05:22:07.821Z,2.00
2022-10-05T05:23:10.186Z,2.00
2022-10-05T05:24:05.485Z,2.00
2022-10-05T05:25:01.297Z,2.00
2022-10-05T05:26:00.284Z,2.00
2022-10-05T05:27:10.173Z,2.00
2022-10-05T05:28:08.114Z,2.00
2022-10-05T05:29:01.287Z,2.00
2022-10-05T05:30:01.290Z,2.00
2022-10-05T05:31:01.370Z,2.00
2022-10-05T05:32:08.391Z,2.00
2022-10-05T05:33:03.537Z,2.00
2022-10-05T05:34:00.312Z,2.00
2022-10-05T05:35:00.265Z,2.00
2022-10-05T05:36:09.285Z,2.00
2022-10-05T05:37:01.287Z,2.00
2022-10-05T05:38:10.272Z,2.00
2022-10-05T05:39:00.274Z,2.00
2022-10-05T05:40:10.201Z,2.00
2022-10-05T05:41:00.301Z,2.00
2022-10-05T05:42:10.215Z,2.00
2022-10-05T05:43:05.596Z,2.00
2022-10-05T05:44:00.278Z,2.00
2022-10-05T05:45:05.767Z,2.00
2022-10-05T05:46:04.991Z,2.00
2022-10-05T05:47:04.403Z,2.00
2022-10-05T05:48:02.149Z,2.00
2022-10-05T05:49:02.301Z,2.00
2022-10-05T05:50:06.618Z,2.00
2022-10-05T05:51:06.579Z,2.00
2022-10-05T05:52:03.580Z,2.70
2022-10-05T05:53:04.660Z,2.70
2022-10-05T05:54:00.255Z,2.70
2022-10-05T05:55:03.982Z,2.70
2022-10-05T05:56:05.730Z,2.70
2022-10-05T05:57:00.257Z,2.70
2022-10-05T05:58:00.292Z,2.70
2022-10-05T05:59:05.405Z,2.70
2022-10-05T06:00:04.956Z,2.70
2022-10-05T06:01:02.808Z,2.70
2022-10-05T06:02:05.974Z,2.70
2022-10-05T06:03:10.276Z,2.70
2022-10-05T06:04:02.918Z,2.70
2022-10-05T06:05:06.390Z,2.70
2022-10-05T06:06:04.125Z,2.70
2022-10-05T06:07:01.308Z,2.70
2022-10-05T06:08:02.405Z,2.70
2022-10-05T06:09:03.337Z,2.70
2022-10-05T06:10:10.169Z,2.70
2022-10-05T06:11:04.205Z,2.70
2022-10-05T06:12:04.763Z,2.70
2022-10-05T06:13:04.438Z,2.70
2022-10-05T06:14:04.057Z,2.70
2022-10-05T06:15:10.195Z,2.70
2022-10-05T06:16:07.836Z,2.70
2022-10-05T06:17:03.941Z,2.70
2022-10-05T06:18:03.612Z,2.70
2022-10-05T06:19:10.177Z,2.70
2022-10-05T06:20:05.299Z,2.70
2022-10-05T06:21:05.781Z,2.70
2022-10-05T06:22:00.260Z,2.80
2022-10-05T06:23:03.370Z,2.80
2022-10-05T06:24:03.898Z,2.80
2022-10-05T06:25:01.305Z,2.80
2022-10-05T06:26:10.991Z,2.80
2022-10-05T06:27:10.174Z,2.80
2022-10-05T06:28:07.274Z,2.80
2022-10-05T06:29:03.016Z,2.80
2022-10-05T06:30:00.291Z,2.80
2022-10-05T06:31:10.239Z,2.80
2022-10-05T06:32:04.955Z,2.80
2022-10-05T06:33:10.188Z,2.80
2022-10-05T06:34:03.584Z,2.80
2022-10-05T06:35:00.326Z,2.80
2022-10-05T06:36:03.588Z,2.80
2022-10-05T06:37:04.688Z,2.80
2022-10-05T06:38:10.276Z,2.80
2022-10-05T06:39:01.288Z,2.80
2022-10-05T06:40:06.972Z,2.80
2022-10-05T06:41:10.186Z,2.80
2022-10-05T06:42:10.185Z,2.80
2022-10-05T06:43:00.259Z,2.80
2022-10-05T06:44:07.658Z,2.80
2022-10-05T06:45:01.322Z,2.80
2022-10-05T06:46:00.341Z,2.80
2022-10-05T06:47:06.398Z,2.80
2022-10-05T06:48:10.187Z,2.80
2022-10-05T06:49:03.550Z,2.80
2022-10-05T06:50:00.298Z,2.80
2022-10-05T06:51:06.879Z,2.80
2022-10-05T06:52:10.188Z,2.50
2022-10-05T06:53:10.175Z,2.50
2022-10-05T06:54:01.291Z,2.50
2022-10-05T06:55:00.258Z,2.50
2022-10-05T06:56:10.204Z,2.50
2022-10-05T06:57:00.260Z,2.50
2022-10-05T06:58:10.215Z,2.50
2022-10-05T06:59:08.354Z,2.50
2022-10-05T07:00:02.426Z,2.50
2022-10-05T07:01:05.506Z,2.50
2022-10-05T07:02:09.045Z,2.50
2022-10-05T07:03:10.179Z,2.50
2022-10-05T07:04:01.317Z,2.50
2022-10-05T07:05:10.195Z,2.50
2022-10-05T07:06:10.178Z,2.50
2022-10-05T07:07:10.188Z,2.50
2022-10-05T07:08:03.429Z,2.50
2022-10-05T07:09:00.277Z,2.50
2022-10-05T07:10:09.492Z,2.50
2022-10-05T07:11:01.300Z,2.50
2022-10-05T07:12:10.183Z,2.50
2022-10-05T07:13:10.185Z,2.50
2022-10-05T07:14:07.387Z,2.50
2022-10-05T07:15:10.188Z,2.50
2022-10-05T07:16:09.818Z,2.50
2022-10-05T07:17:07.239Z,2.50
2022-10-05T07:18:10.243Z,2.50
2022-10-05T07:19:10.196Z,2.50
2022-10-05T07:20:10.192Z,2.50
2022-10-05T07:21:10.198Z,2.50
2022-10-05T07:22:10.230Z,2.60
2022-10-05T07:23:10.197Z,2.60
2022-10-05T07:24:08.682Z,2.60
2022-10-05T07:25:06.209Z,2.60
2022-10-05T07:26:10.202Z,2.60
2022-10-05T07:27:08.627Z,2.60
2022-10-05T07:28:10.251Z,2.60
2022-10-05T07:29:10.212Z,2.60
2022-10-05T07:30:03.796Z,2.60
2022-10-05T07:31:07.208Z,2.60
2022-10-05T07:32:00.332Z,2.60
2022-10-05T07:33:00.302Z,2.60
2022-10-05T07:34:06.130Z,2.60
2022-10-05T07:35:00.319Z,2.60
2022-10-05T07:36:03.685Z,2.60
2022-10-05T07:37:03.233Z,2.60
2022-10-05T07:38:06.152Z,2.60
2022-10-05T07:39:05.029Z,2.60
2022-10-05T07:40:05.846Z,2.60
2022-10-05T07:41:00.363Z,2.60
2022-10-05T07:42:08.017Z,2.60
2022-10-05T07:43:01.318Z,2.60
2022-10-05T07:44:02.905Z,2.60
2022-10-05T07:45:08.734Z,2.60
2022-10-05T07:46:00.415Z,2.60
2022-10-05T07:47:09.155Z,2.60
2022-10-05T07:48:05.972Z,2.60
2022-10-05T07:49:04.357Z,2.60
2022-10-05T07:50:07.447Z,2.60
2022-10-05T07:51:10.218Z,2.60
2022-10-05T07:52:04.331Z,2.70
2022-10-05T07:53:04.079Z,2.70
2022-10-05T07:54:00.331Z,2.70
2022-10-05T07:55:05.391Z,2.70
2022-10-05T07:56:05.523Z,2.70
2022-10-05T07:57:10.212Z,2.70
2022-10-05T07:58:05.336Z,2.70
2022-10-05T07:59:04.721Z,2.70
2022-10-05T08:00:04.217Z,2.70
2022-10-05T08:01:00.327Z,2.70
2022-10-05T08:02:10.344Z,2.70
2022-10-05T08:03:05.278Z,2.70
2022-10-05T08:04:09.294Z,2.70
2022-10-05T08:05:04.635Z,2.70
2022-10-05T08:06:02.210Z,2.70
2022-10-05T08:07:03.678Z,2.70
2022-10-05T08:08:05.683Z,2.70
2022-10-05T08:09:06.087Z,2.70
2022-10-05T08:10:00.324Z,2.70
2022-10-05T08:11:06.391Z,2.70
2022-10-05T08:12:00.343Z,2.70
2022-10-05T08:13:07.810Z,2.70
2022-10-05T08:14:07.042Z,2.70
2022-10-05T08:15:10.204Z,2.70
2022-10-05T08:16:02.373Z,2.70
2022-10-05T08:17:05.075Z,2.70
2022-10-05T08:18:03.389Z,2.70
2022-10-05T08:19:04.889Z,2.70
2022-10-05T08:20:10.047Z,2.70
2022-10-05T08:21:00.593Z,2.70
2022-10-05T08:22:05.112Z,2.10
2022-10-05T08:23:06.255Z,2.10
2022-10-05T08:24:03.579Z,2.10
2022-10-05T08:25:04.054Z,2.10
2022-10-05T08:26:10.310Z,2.10
2022-10-05T08:27:05.185Z,2.10
2022-10-05T08:28:08.436Z,2.10
2022-10-05T08:29:01.370Z,2.10
2022-10-05T08:30:03.458Z,2.10
2022-10-05T08:31:10.242Z,2.10
2022-10-05T08:32:03.369Z,2.10
2022-10-05T08:33:00.519Z,2.10
2022-10-05T08:34:10.199Z,2.10
2022-10-05T08:35:11.169Z,2.10
2022-10-05T08:36:04.809Z,2.10
2022-10-05T08:37:01.309Z,2.10
2022-10-05T08:38:02.556Z,2.10
2022-10-05T08:39:04.916Z,2.10
2022-10-05T08:40:00.322Z,2.10
2022-10-05T08:41:10.645Z,2.10
2022-10-05T08:42:10.191Z,2.10
2022-10-05T08:43:10.293Z,2.10
2022-10-05T08:44:10.196Z,2.10
2022-10-05T08:45:07.798Z,2.10
2022-10-05T08:46:00.312Z,2.10
2022-10-05T08:47:00.258Z,2.10
2022-10-05T08:48:01.285Z,2.10
2022-10-05T08:49:08.646Z,2.10
2022-10-05T08:50:03.542Z,2.10
2022-10-05T08:51:10.198Z,2.10
2022-10-05T08:52:00.267Z,2.90
2022-10-05T08:53:10.208Z,2.90
2022-10-05T08:54:01.302Z,2.90
2022-10-05T08:55:03.566Z,2.90
2022-10-05T08:56:10.206Z,2.90
2022-10-05T08:57:10.179Z,2.90
2022-10-05T08:58:09.869Z,2.90
2022-10-05T08:59:10.188Z,2.90
2022-10-05T09:00:10.224Z,2.90
2022-10-05T09:01:03.598Z,2.90
2022-10-05T09:02:10.210Z,2.90
2022-10-05T09:03:08.154Z,2.90
2022-10-05T09:04:10.179Z,2.90
2022-10-05T09:05:10.231Z,2.90
2022-10-05T09:06:01.303Z,2.90
2022-10-05T09:07:03.697Z,2.90
2022-10-05T09:08:01.297Z,2.90
2022-10-05T09:09:10.195Z,2.90
2022-10-05T09:10:10.214Z,2.90
2022-10-05T09:11:00.274Z,2.90
2022-10-05T09:12:07.768Z,2.90
2022-10-05T09:13:10.183Z,2.90
2022-10-05T09:14:00.278Z,2.90
2022-10-05T09:15:25.247Z,2.90
2022-10-05T09:16:03.583Z,2.90
2022-10-05T09:17:09.624Z,2.90
2022-10-05T09:18:10.181Z,2.90
2022-10-05T09:19:08.912Z,2.90
2022-10-05T09:20:10.231Z,2.90
2022-10-05T09:21:04.523Z,2.90
2022-10-05T09:22:10.242Z,3.60
2022-10-05T09:23:10.208Z,3.60
2022-10-05T09:24:00.283Z,3.60
2022-10-05T09:25:10.195Z,3.60
2022-10-05T09:26:07.707Z,3.60
2022-10-05T09:27:03.564Z,3.60
2022-10-05T09:28:10.218Z,3.60
2022-10-05T09:29:01.321Z,3.60
2022-10-05T09:30:00.268Z,3.60
2022-10-05T09:31:10.247Z,3.60
2022-10-05T09:32:15.595Z,3.60
2022-10-05T09:33:07.798Z,3.60
2022-10-05T09:34:10.200Z,3.60
2022-10-05T09:35:03.558Z,3.60
2022-10-05T09:36:10.177Z,3.60
2022-10-05T09:37:10.178Z,3.60
2022-10-05T09:38:10.206Z,3.60
2022-10-05T09:39:00.281Z,3.60
2022-10-05T09:40:01.556Z,3.60
2022-10-05T09:41:07.807Z,3.60
2022-10-05T09:42:10.195Z,3.60
2022-10-05T09:43:10.187Z,3.60
2022-10-05T09:44:10.188Z,3.60
2022-10-05T09:45:10.173Z,3.60
2022-10-05T09:46:01.354Z,3.60
2022-10-05T09:47:10.196Z,3.60
2022-10-05T09:48:00.637Z,3.60
2022-10-05T09:49:10.092Z,3.60
2022-10-05T09:50:03.546Z,3.60
2022-10-05T09:51:08.856Z,3.60
2022-10-05T09:52:10.190Z,2.70
2022-10-05T09:53:08.355Z,2.70
2022-10-05T09:54:10.180Z,2.70
2022-10-05T09:55:07.755Z,2.70
2022-10-05T09:56:03.537Z,2.70
2022-10-05T09:57:10.178Z,2.70
2022-10-05T09:58:09.907Z,2.70
2022-10-05T09:59:00.270Z,2.70
2022-10-05T10:00:00.414Z,2.70
2022-10-05T10:01:10.015Z,2.70
2022-10-05T10:02:01.353Z,2.70
2022-10-05T10:03:00.422Z,2.70
2022-10-05T10:04:10.277Z,2.70
2022-10-05T10:05:01.317Z,2.70
2022-10-05T10:06:10.172Z,2.70
2022-10-05T10:07:01.286Z,2.70
2022-10-05T10:08:10.197Z,2.70
2022-10-05T10:09:03.548Z,2.70
2022-10-05T10:10:03.567Z,2.70
2022-10-05T10:11:10.191Z,2.70
2022-10-05T10:12:10.178Z,2.70
2022-10-05T10:13:10.193Z,2.70
2022-10-05T10:14:01.308Z,2.70
2022-10-05T10:15:10.225Z,2.70
2022-10-05T10:16:10.225Z,2.70
2022-10-05T10:17:03.549Z,2.70
2022-10-05T10:18:10.176Z,2.70
2022-10-05T10:19:00.281Z,2.70
2022-10-05T10:20:10.224Z,2.70
2022-10-05T10:21:03.558Z,2.70
2022-10-05T10:22:00.282Z,2.60
2022-10-05T10:23:10.185Z,2.60
2022-10-05T10:24:10.203Z,2.60
2022-10-05T10:25:00.277Z,2.60
2022-10-05T10:26:10.193Z,2.60
2022-10-05T10:27:08.039Z,2.60
2022-10-05T10:28:10.200Z,2.60
2022-10-05T10:29:10.183Z,2.60
2022-10-05T10:30:10.196Z,2.60
2022-10-05T10:31:00.349Z,2.60
2022-10-05T10:32:10.193Z,2.60
2022-10-05T10:33:06.609Z,2.60
2022-10-05T10:34:01.302Z,2.60
2022-10-05T10:35:10.198Z,2.60
2022-10-05T10:36:07.112Z,2.60
2022-10-05T10:37:00.262Z,2.60
2022-10-05T10:38:10.189Z,2.60
2022-10-05T10:39:05.721Z,2.60
2022-10-05T10:40:07.944Z,2.60
2022-10-05T10:41:06.737Z,2.60
2022-10-05T10:42:08.978Z,2.60
2022-10-05T10:43:10.182Z,2.60
2022-10-05T10:44:01.288Z,2.60
2022-10-05T10:45:10.183Z,2.60
2022-10-05T10:46:10.264Z,2.60
2022-10-05T10:47:01.342Z,2.60
2022-10-05T10:48:02.827Z,2.60
2022-10-05T10:49:10.204Z,2.60
2022-10-05T10:50:10.187Z,2.60
2022-10-05T10:51:00.266Z,2.60
2022-10-05T10:52:10.183Z,3.20
2022-10-05T10:53:10.177Z,3.20
2022-10-05T10:54:10.181Z,3.20
2022-10-05T10:55:10.201Z,3.20
2022-10-05T10:56:10.185Z,3.20
2022-10-05T10:57:06.036Z,3.20
2022-10-05T10:58:12.411Z,3.20
2022-10-05T10:59:10.185Z,3.20
2022-10-05T11:00:10.312Z,3.20
2022-10-05T11:01:00.390Z,3.20
2022-10-05T11:02:00.335Z,3.20
2022-10-05T11:03:10.305Z,3.20
2022-10-05T11:04:03.584Z,3.20
2022-10-05T11:05:10.253Z,3.20
2022-10-05T11:06:10.192Z,3.20
2022-10-05T11:07:10.186Z,3.20
2022-10-05T11:08:00.277Z,3.20
2022-10-05T11:09:03.614Z,3.20
2022-10-05T11:10:01.764Z,3.20
2022-10-05T11:11:10.176Z,3.20
2022-10-05T11:12:00.270Z,3.20
2022-10-05T11:13:03.557Z,3.20
2022-10-05T11:14:10.198Z,3.20
2022-10-05T11:15:03.219Z,3.20
2022-10-05T11:16:11.671Z,3.20
2022-10-05T11:17:01.306Z,3.20
2022-10-05T11:18:00.279Z,3.20
2022-10-05T11:19:10.180Z,3.20
2022-10-05T11:20:04.836Z,3.20
2022-10-05T11:21:10.203Z,3.20
2022-10-05T11:22:10.187Z,1.90
2022-10-05T11:23:00.322Z,1.90
2022-10-05T11:24:00.283Z,1.90
2022-10-05T11:25:03.580Z,1.90
2022-10-05T11:26:10.176Z,1.90
2022-10-05T11:27:00.278Z,1.90
2022-10-05T11:28:10.250Z,1.90
2022-10-05T11:29:01.391Z,1.90
2022-10-05T11:30:10.171Z,1.90
2022-10-05T11:31:00.365Z,1.90
2022-10-05T11:32:10.177Z,1.90
2022-10-05T11:33:10.187Z,1.90
2022-10-05T11:34:10.199Z,1.90
2022-10-05T11:35:00.276Z,1.90
2022-10-05T11:36:01.313Z,1.90
2022-10-05T11:37:03.547Z,1.90
2022-10-05T11:38:10.187Z,1.90
2022-10-05T11:39:10.183Z,1.90
2022-10-05T11:40:03.526Z,1.90
2022-10-05T11:41:10.206Z,1.90
2022-10-05T11:42:10.177Z,1.90
2022-10-05T11:43:00.318Z,1.90
2022-10-05T11:44:10.192Z,1.90
2022-10-05T11:45:10.263Z,1.90
2022-10-05T11:46:10.260Z,1.90
2022-10-05T11:47:10.180Z,1.90
2022-10-05T11:48:10.177Z,1.90
2022-10-05T11:49:03.556Z,1.90
2022-10-05T11:50:10.209Z,1.90
2022-10-05T11:51:03.553Z,1.90
2022-10-05T11:52:04.909Z,1.60
2022-10-05T11:53:03.547Z,1.60
2022-10-05T11:54:01.288Z,1.60
2022-10-05T11:55:11.811Z,1.60
2022-10-05T11:56:00.281Z,1.60
2022-10-05T11:57:05.248Z,1.60
2022-10-05T11:58:10.207Z,1.60
2022-10-05T11:59:07.977Z,1.60
2022-10-05T12:00:08.209Z,1.60
2022-10-05T12:01:05.763Z,1.60
2022-10-05T12:02:00.275Z,1.60
2022-10-05T12:03:10.297Z,1.60
2022-10-05T12:04:03.673Z,1.60
2022-10-05T12:05:10.199Z,1.60
2022-10-05T12:06:07.803Z,1.60
2022-10-05T12:07:06.119Z,1.60
2022-10-05T12:08:10.182Z,1.60
2022-10-05T12:09:10.183Z,1.60
2022-10-05T12:10:10.181Z,1.60
2022-10-05T12:11:06.787Z,1.60
2022-10-05T12:12:01.316Z,1.60
2022-10-05T12:13:06.029Z,1.60
2022-10-05T12:14:10.187Z,1.60
2022-10-05T12:15:10.186Z,1.60
2022-10-05T12:16:05.706Z,1.60
2022-10-05T12:17:08.680Z,1.60
2022-10-05T12:18:10.230Z,1.60
2022-10-05T12:19:03.782Z,1.60
2022-10-05T12:20:09.847Z,1.60
2022-10-05T12:21:04.765Z,1.60
2022-10-05T12:22:03.119Z,2.00
2022-10-05T12:23:10.195Z,2.00
2022-10-05T12:24:06.313Z,2.00
2022-10-05T12:25:04.051Z,2.00
2022-10-05T12:26:04.346Z,2.00
2022-10-05T12:27:06.460Z,2.00
2022-10-05T12:28:04.605Z,2.00
2022-10-05T12:29:05.334Z,2.00
2022-10-05T12:30:01.323Z,2.00
2022-10-05T12:31:10.209Z,2.00
2022-10-05T12:32:03.592Z,2.00
2022-10-05T12:33:07.120Z,2.00
2022-10-05T12:34:00.280Z,2.00
2022-10-05T12:35:06.671Z,2.00
2022-10-05T12:36:10.186Z,2.00
2022-10-05T12:37:06.976Z,2.00
2022-10-05T12:38:00.286Z,2.00
2022-10-05T12:39:01.350Z,2.00
2022-10-05T12:40:04.794Z,2.00
2022-10-05T12:41:07.030Z,2.00
2022-10-05T12:42:08.708Z,2.00
2022-10-05T12:43:01.296Z,2.00
2022-10-05T12:44:10.175Z,2.00
2022-10-05T12:45:03.615Z,2.00
2022-10-05T12:46:03.641Z,2.00
2022-10-05T12:47:10.185Z,2.00
2022-10-05T12:48:10.190Z,2.00
2022-10-05T12:49:01.285Z,2.00
2022-10-05T12:50:10.189Z,2.00
2022-10-05T12:51:05.827Z,2.00
2022-10-05T12:52:02.327Z,1.70
2022-10-05T12:53:07.320Z,1.70
2022-10-05T12:54:08.141Z,1.70
2022-10-05T12:55:00.295Z,1.70
2022-10-05T12:56:00.286Z,1.70
2022-10-05T12:57:03.545Z,1.70
2022-10-05T12:58:01.292Z,1.70
2022-10-05T12:59:07.733Z,1.70
2022-10-05T13:00:03.603Z,1.70
2022-10-05T13:01:07.687Z,1.70
2022-10-05T13:02:10.223Z,1.70
2022-10-05T13:03:07.487Z,1.70
2022-10-05T13:04:00.266Z,1.70
2022-10-05T13:05:10.217Z,1.70
2022-10-05T13:06:02.637Z,1.70
2022-10-05T13:07:10.183Z,1.70
2022-10-05T13:08:00.281Z,1.70
2022-10-05T13:09:06.129Z,1.70
2022-10-05T13:10:10.194Z,1.70
2022-10-05T13:11:04.198Z,1.70
2022-10-05T13:12:03.850Z,1.70
2022-10-05T13:13:10.278Z,1.70
2022-10-05T13:14:01.298Z,1.70
2022-10-05T13:15:09.454Z,1.70
2022-10-05T13:16:00.384Z,1.70
2022-10-05T13:17:06.931Z,1.70
2022-10-05T13:18:10.214Z,1.70